createdAt,value
2018-09-17T00:01:42.390Z,6.30
2018-09-17T00:04:45.477Z,7.17
2018-09-17T00:07:48.531Z,6.30
2018-09-17T00:10:51.562Z,5.60
2018-09-17T00:13:54.606Z,5.67
2018-09-17T00:16:57.634Z,6.27
2018-09-17T00:20:00.698Z,5.67
2018-09-17T00:23:03.767Z,5.63
2018-09-17T00:26:06.839Z,6.30
2018-09-17T00:29:09.916Z,6.07
2018-09-17T00:32:12.954Z,6.97
2018-09-17T00:35:16.002Z,5.63
2018-09-17T00:38:19.084Z,5.43
2018-09-17T00:41:22.134Z,6.03
2018-09-17T00:44:25.181Z,5.87
2018-09-17T00:47:33.946Z,5.30
2018-09-17T00:50:36.999Z,6.03
2018-09-17T00:53:40.098Z,5.57
2018-09-17T00:56:43.142Z,6.13
2018-09-17T00:59:46.211Z,5.10
2018-09-17T01:02:49.261Z,5.83
2018-09-17T01:05:52.327Z,5.53
2018-09-17T01:08:55.385Z,5.53
2018-09-17T01:11:58.431Z,5.33
2018-09-17T01:15:01.513Z,5.87
2018-09-17T01:18:04.564Z,6.10
2018-09-17T01:21:07.678Z,5.60
2018-09-17T01:24:10.728Z,6.67
2018-09-17T01:27:13.742Z,5.60
2018-09-17T01:30:16.889Z,6.20
2018-09-17T01:33:19.898Z,6.07
2018-09-17T01:36:22.958Z,5.83
2018-09-17T01:39:26.035Z,5.67
2018-09-17T01:42:29.039Z,5.47
2018-09-17T01:45:32.046Z,7.57
2018-09-17T01:48:35.046Z,5.77
2018-09-17T01:51:38.053Z,6.03
2018-09-17T01:54:41.071Z,6.00
2018-09-17T01:57:44.069Z,5.60
2018-09-17T02:00:47.182Z,5.50
2018-09-17T02:03:50.182Z,6.30
2018-09-17T02:06:53.208Z,6.30
2018-09-17T02:09:56.263Z,5.67
2018-09-17T02:12:59.256Z,7.13
2018-09-17T02:16:02.337Z,6.83
2018-09-17T02:19:05.433Z,6.30
2018-09-17T02:22:09.193Z,6.50
2018-09-17T02:25:12.198Z,7.37
2018-09-17T02:28:15.190Z,6.07
2018-09-17T02:31:18.283Z,7.13
2018-09-17T02:34:21.271Z,7.47
2018-09-17T02:37:24.282Z,7.13
2018-09-17T02:40:27.363Z,6.73
2018-09-17T02:43:30.417Z,6.77
2018-09-17T02:46:33.424Z,6.57
2018-09-17T02:49:36.422Z,6.47
2018-09-17T02:52:39.467Z,7.40
2018-09-17T02:55:42.498Z,6.30
2018-09-17T02:58:45.577Z,6.77
2018-09-17T03:01:48.574Z,6.63
2018-09-17T03:04:51.599Z,6.80
2018-09-17T03:07:54.678Z,6.27
2018-09-17T03:10:57.719Z,7.00
2018-09-17T03:14:00.698Z,6.93
2018-09-17T03:17:09.818Z,7.27
2018-09-17T03:20:12.854Z,7.63
2018-09-17T03:23:15.858Z,9.93
2018-09-17T03:26:19.362Z,9.33
2018-09-17T03:29:22.350Z,7.20
2018-09-17T03:32:25.350Z,7.77
2018-09-17T03:35:28.347Z,8.33
2018-09-17T03:38:43.758Z,7.47
2018-09-17T03:41:46.797Z,7.77
2018-09-17T03:44:49.829Z,8.13
2018-09-17T03:47:52.906Z,8.33
2018-09-17T03:50:55.923Z,8.47
2018-09-17T03:53:58.953Z,7.63
2018-09-17T03:57:01.994Z,7.67
2018-09-17T04:00:05.098Z,8.00
2018-09-17T04:03:08.370Z,8.70
2018-09-17T04:06:11.399Z,8.77
2018-09-17T04:09:14.444Z,9.57
2018-09-17T04:12:17.470Z,9.23
2018-09-17T04:15:20.490Z,9.03
2018-09-17T04:18:23.526Z,8.20
2018-09-17T04:21:26.551Z,8.67
2018-09-17T04:24:29.586Z,8.23
2018-09-17T04:27:32.634Z,9.50
2018-09-17T04:30:35.702Z,7.83
2018-09-17T04:33:41.021Z,9.10
2018-09-17T04:36:44.152Z,8.80
2018-09-17T04:39:47.225Z,8.33
2018-09-17T04:42:50.253Z,8.87
2018-09-17T04:45:53.243Z,9.20
2018-09-17T04:48:56.254Z,8.83
2018-09-17T04:51:59.243Z,8.83
2018-09-17T04:55:02.366Z,9.17
2018-09-17T04:58:05.409Z,9.73
2018-09-17T05:01:08.402Z,9.67
2018-09-17T05:04:11.406Z,9.07
2018-09-17T05:07:14.393Z,9.60
2018-09-17T05:10:17.422Z,9.17
2018-09-17T05:13:20.563Z,8.30
2018-09-17T05:16:23.498Z,8.27
2018-09-17T05:19:26.493Z,9.27
2018-09-17T05:22:29.478Z,10.00
2018-09-17T05:25:32.526Z,8.83
2018-09-17T05:28:35.538Z,8.73
2018-09-17T05:31:38.538Z,9.37
2018-09-17T05:34:41.555Z,9.73
2018-09-17T05:37:44.566Z,9.70
2018-09-17T05:40:47.605Z,8.87
2018-09-17T05:43:50.619Z,9.60
2018-09-17T05:46:53.602Z,9.80
2018-09-17T05:49:56.630Z,10.57
2018-09-17T05:52:59.614Z,11.10
2018-09-17T05:56:02.609Z,11.00
2018-09-17T05:59:05.882Z,10.33
2018-09-17T06:02:08.906Z,9.93
2018-09-17T06:05:11.982Z,9.53
2018-09-17T06:08:14.974Z,10.53
2018-09-17T06:11:18.047Z,8.83
2018-09-17T06:14:21.034Z,9.27
2018-09-17T06:17:24.036Z,9.13
2018-09-17T06:20:27.042Z,9.70
2018-09-17T06:23:30.078Z,10.07
2018-09-17T06:26:33.158Z,8.93
2018-09-17T06:29:36.119Z,9.60
2018-09-17T06:32:39.115Z,9.05
2018-09-17T06:35:42.126Z,8.88
2018-09-17T06:38:45.170Z,10.00
2018-09-17T06:41:48.211Z,9.98
2018-09-17T06:44:51.305Z,9.40
2018-09-17T06:47:54.314Z,9.08
2018-09-17T06:50:57.367Z,8.73
2018-09-17T06:54:00.399Z,8.65
2018-09-17T06:57:03.491Z,9.18
2018-09-17T07:00:06.605Z,9.33
2018-09-17T07:03:09.634Z,9.45
2018-09-17T07:06:12.684Z,9.45
2018-09-17T07:09:15.714Z,8.45
2018-09-17T07:12:18.753Z,8.58
2018-09-17T07:15:21.782Z,9.20
2018-09-17T07:18:24.785Z,9.60
2018-09-17T07:21:27.813Z,9.60
2018-09-17T07:24:30.828Z,9.90
2018-09-17T07:27:33.858Z,9.78
2018-09-17T07:30:36.909Z,10.13
2018-09-17T07:33:39.928Z,9.73
2018-09-17T07:36:42.980Z,9.55
2018-09-17T07:39:45.990Z,11.97
2018-09-17T07:42:49.028Z,10.23
2018-09-17T07:45:52.029Z,11.43
2018-09-17T07:48:55.019Z,10.72
2018-09-17T07:51:58.056Z,9.38
2018-09-17T07:55:01.034Z,10.90
2018-09-17T07:58:04.197Z,11.20
2018-09-17T08:01:07.309Z,10.48
2018-09-17T08:04:10.318Z,9.08
2018-09-17T08:07:13.330Z,9.38
2018-09-17T08:10:19.454Z,10.05
2018-09-17T08:13:22.454Z,8.10
2018-09-17T08:16:25.542Z,7.67
2018-09-17T08:19:28.526Z,7.53
2018-09-17T08:22:31.534Z,7.75
2018-09-17T08:25:34.568Z,7.58
2018-09-17T08:28:37.691Z,7.78
2018-09-17T08:31:40.698Z,8.05
2018-09-17T08:34:43.709Z,8.78
2018-09-17T08:37:46.727Z,9.13
2018-09-17T08:40:49.747Z,9.40
2018-09-17T08:43:52.740Z,7.80
2018-09-17T08:46:55.746Z,7.65
2018-09-17T08:49:58.746Z,7.83
2018-09-17T08:53:01.846Z,7.72
2018-09-17T08:56:10.770Z,7.97
2018-09-17T08:59:19.386Z,9.30
2018-09-17T09:02:28.188Z,8.15
2018-09-17T09:05:34.587Z,7.90
2018-09-17T09:08:37.586Z,6.62
2018-09-17T09:11:46.217Z,6.90
2018-09-17T09:14:53.780Z,6.80
2018-09-17T09:17:56.771Z,6.00
2018-09-17T09:20:59.767Z,5.85
2018-09-17T09:24:02.803Z,7.03
2018-09-17T09:27:05.832Z,5.75
2018-09-17T09:30:08.877Z,5.33
2018-09-17T09:33:11.902Z,6.05
2018-09-17T09:36:14.933Z,5.15
2018-09-17T09:39:17.957Z,5.72
2018-09-17T09:42:20.950Z,4.62
2018-09-17T09:45:23.982Z,4.85
2018-09-17T09:48:27.014Z,5.85
2018-09-17T09:51:30.014Z,4.47
2018-09-17T09:54:33.021Z,5.28
2018-09-17T09:57:36.013Z,5.67
2018-09-17T10:00:44.766Z,5.35
2018-09-17T10:03:52.442Z,5.17
2018-09-17T10:06:55.434Z,5.20
2018-09-17T10:10:04.011Z,4.80
2018-09-17T10:13:12.616Z,4.78
2018-09-17T10:16:17.058Z,4.17
2018-09-17T10:19:22.793Z,4.70
2018-09-17T10:22:25.777Z,4.65
2018-09-17T10:25:28.801Z,4.40
2018-09-17T10:28:31.790Z,4.78
2018-09-17T10:31:34.809Z,4.53
2018-09-17T10:34:37.823Z,4.17
2018-09-17T10:37:40.814Z,4.00
2018-09-17T10:40:43.854Z,4.62
2018-09-17T10:43:46.862Z,3.90
2018-09-17T10:46:49.910Z,3.87
2018-09-17T10:49:52.902Z,3.70
2018-09-17T10:52:55.912Z,3.47
2018-09-17T10:55:58.922Z,3.42
2018-09-17T10:59:01.918Z,3.20
2018-09-17T11:02:04.974Z,3.10
2018-09-17T11:05:07.998Z,3.55
2018-09-17T11:08:11.029Z,3.20
2018-09-17T11:11:14.031Z,3.52
2018-09-17T11:14:17.026Z,3.10
2018-09-17T11:17:20.111Z,3.00
2018-09-17T11:20:23.070Z,3.20
2018-09-17T11:23:26.081Z,3.62
2018-09-17T11:26:29.090Z,3.25
2018-09-17T11:29:32.091Z,3.22
2018-09-17T11:32:35.095Z,3.00
2018-09-17T11:35:38.138Z,3.40
2018-09-17T11:38:41.181Z,3.30
2018-09-17T11:41:44.231Z,3.58
2018-09-17T11:44:47.253Z,4.00
2018-09-17T11:47:50.282Z,3.40
2018-09-17T11:50:53.350Z,3.22
2018-09-17T11:53:56.422Z,3.58
2018-09-17T11:56:59.439Z,4.17
2018-09-17T12:00:02.537Z,3.65
2018-09-17T12:04:09.786Z,3.70
2018-09-17T12:07:18.498Z,3.22
2018-09-17T12:10:21.512Z,3.00
2018-09-17T12:13:24.570Z,3.20
2018-09-17T12:16:27.615Z,3.22
2018-09-17T12:19:30.688Z,3.10
2018-09-17T12:22:33.721Z,3.80
2018-09-17T12:25:36.789Z,3.92
2018-09-17T12:28:39.845Z,3.42
2018-09-17T12:31:42.915Z,3.50
2018-09-17T12:34:45.974Z,3.98
2018-09-17T12:37:49.063Z,4.40
2018-09-17T12:40:52.113Z,3.40
2018-09-17T12:43:55.217Z,3.70
2018-09-17T12:46:58.245Z,3.62
2018-09-17T12:50:01.257Z,3.85
2018-09-17T12:53:04.302Z,3.70
2018-09-17T12:56:07.328Z,3.30
2018-09-17T12:59:10.366Z,3.55
2018-09-17T13:02:13.502Z,3.52
2018-09-17T13:05:16.545Z,3.17
2018-09-17T13:08:19.614Z,3.15
2018-09-17T13:11:22.687Z,3.30
2018-09-17T13:14:25.714Z,3.30
2018-09-17T13:17:28.761Z,3.05
2018-09-17T13:20:31.761Z,3.20
2018-09-17T13:23:34.803Z,3.33
2018-09-17T13:26:38.242Z,3.45
2018-09-17T13:29:41.266Z,2.80
2018-09-17T13:32:44.288Z,3.20
2018-09-17T13:35:47.319Z,3.20
2018-09-17T13:38:50.362Z,3.10
2018-09-17T13:41:53.385Z,3.42
2018-09-17T13:44:56.445Z,2.95
2018-09-17T13:47:59.564Z,3.00
2018-09-17T13:51:02.573Z,3.20
2018-09-17T13:54:05.597Z,3.00
2018-09-17T13:57:08.637Z,2.77
2018-09-17T14:00:11.709Z,3.00
2018-09-17T14:03:14.785Z,2.70
2018-09-17T14:06:17.795Z,3.08
2018-09-17T14:09:20.829Z,3.30
2018-09-17T14:12:23.862Z,3.00
2018-09-17T14:15:26.927Z,3.00
2018-09-17T14:18:30.413Z,2.60
2018-09-17T14:21:33.434Z,2.95
2018-09-17T14:24:36.485Z,2.77
2018-09-17T14:27:39.659Z,2.65
2018-09-17T14:30:42.664Z,2.95
2018-09-17T14:33:45.992Z,2.75
2018-09-17T14:36:49.019Z,2.95
2018-09-17T14:39:52.078Z,2.90
2018-09-17T14:42:55.087Z,2.77
2018-09-17T14:45:58.124Z,3.10
2018-09-17T14:49:01.154Z,3.30
2018-09-17T14:52:04.221Z,3.15
2018-09-17T14:55:07.193Z,3.35
2018-09-17T14:58:10.894Z,3.20
2018-09-17T15:01:13.934Z,3.00
2018-09-17T15:04:16.998Z,2.83
2018-09-17T15:07:19.960Z,3.12
2018-09-17T15:10:23.020Z,3.20
2018-09-17T15:13:26.014Z,3.33
2018-09-17T15:16:29.084Z,6.20
2018-09-17T15:19:32.046Z,3.10
2018-09-17T15:22:35.069Z,2.95
2018-09-17T15:25:38.066Z,2.90
2018-09-17T15:28:41.161Z,3.40
2018-09-17T15:31:44.158Z,2.98
2018-09-17T15:34:47.204Z,3.12
2018-09-17T15:37:50.730Z,3.00
2018-09-17T15:40:53.917Z,3.45
2018-09-17T15:43:57.157Z,2.87
2018-09-17T15:47:00.252Z,3.27
2018-09-17T15:50:03.287Z,3.08
2018-09-17T15:53:06.311Z,3.35
2018-09-17T15:56:09.330Z,3.15
2018-09-17T15:59:12.339Z,3.30
2018-09-17T16:02:15.432Z,3.62
2018-09-17T16:05:18.454Z,3.20
2018-09-17T16:08:21.449Z,3.30
2018-09-17T16:11:24.533Z,3.58
2018-09-17T16:14:27.573Z,3.40
2018-09-17T16:17:30.594Z,3.40
2018-09-17T16:20:33.680Z,3.58
2018-09-17T16:23:36.610Z,2.62
2018-09-17T16:26:39.622Z,3.00
2018-09-17T16:29:42.705Z,3.02
2018-09-17T16:32:45.690Z,3.17
2018-09-17T16:35:48.745Z,3.67
2018-09-17T16:38:51.790Z,2.98
2018-09-17T16:41:54.837Z,3.65
2018-09-17T16:44:57.859Z,2.62
2018-09-17T16:48:00.910Z,2.75
2018-09-17T16:51:04.178Z,2.85
2018-09-17T16:54:07.947Z,3.12
2018-09-17T16:57:11.111Z,2.70
2018-09-17T17:00:14.210Z,3.40
2018-09-17T17:03:17.286Z,2.87
2018-09-17T17:06:20.331Z,2.98
2018-09-17T17:09:23.353Z,2.92
2018-09-17T17:12:26.402Z,2.58
2018-09-17T17:15:29.458Z,3.15
2018-09-17T17:18:32.517Z,3.12
2018-09-17T17:21:37.819Z,3.67
2018-09-17T17:24:42.331Z,3.10
2018-09-17T17:27:45.547Z,3.27
2018-09-17T17:30:48.784Z,3.27
2018-09-17T17:33:52.517Z,3.17
2018-09-17T17:37:00.606Z,2.98
2018-09-17T17:40:04.876Z,3.02
2018-09-17T17:43:08.112Z,3.52
2018-09-17T17:46:11.425Z,3.00
2018-09-17T17:49:14.415Z,3.30
2018-09-17T17:52:17.708Z,3.42
2018-09-17T17:55:20.764Z,3.65
2018-09-17T17:58:23.963Z,3.40
2018-09-17T18:01:27.529Z,3.80
2018-09-17T18:04:30.522Z,3.20
2018-09-17T18:07:34.126Z,3.85
2018-09-17T18:10:37.285Z,3.52
2018-09-17T18:13:40.419Z,3.40
2018-09-17T18:16:43.494Z,3.25
2018-09-17T18:19:46.587Z,3.25
2018-09-17T18:22:49.631Z,3.27
2018-09-17T18:25:52.840Z,3.33
2018-09-17T18:28:56.151Z,3.40
2018-09-17T18:32:00.647Z,3.30
2018-09-17T18:35:04.811Z,3.35
2018-09-17T18:38:08.591Z,3.50
2018-09-17T18:41:14.019Z,3.45
2018-09-17T18:58:07.688Z,3.30
2018-09-17T19:01:12.671Z,3.40
2018-09-17T19:04:17.170Z,3.00
2018-09-17T19:07:22.657Z,3.55
2018-09-17T19:10:29.906Z,3.65
2018-09-17T19:13:35.473Z,2.95
2018-09-17T19:16:55.612Z,3.50
2018-09-17T19:20:00.048Z,3.67
2018-09-17T19:23:09.596Z,3.83
2018-09-17T19:26:14.558Z,3.58
2018-09-17T19:29:21.237Z,3.83
2018-09-17T19:32:25.666Z,3.70
2018-09-17T19:35:31.247Z,3.98
2018-09-17T19:38:40.782Z,4.60
2018-09-17T19:41:45.357Z,4.22
2018-09-17T19:44:54.880Z,4.62
2018-09-17T19:47:59.576Z,4.40
2018-09-17T19:51:19.919Z,3.75
2018-09-17T19:57:44.536Z,4.28
2018-09-17T20:00:49.848Z,4.17
2018-09-17T20:03:55.147Z,3.65
2018-09-17T20:07:02.467Z,3.50
2018-09-17T20:10:09.141Z,3.62
2018-09-17T20:13:14.043Z,4.28
2018-09-17T20:16:19.176Z,4.55
2018-09-17T20:19:24.318Z,4.10
2018-09-17T20:22:29.287Z,4.10
2018-09-17T20:25:33.802Z,4.00
2018-09-17T20:28:39.361Z,4.40
2018-09-17T20:31:50.284Z,4.42
2018-09-17T20:34:56.048Z,4.70
2018-09-17T20:38:10.308Z,4.60
2018-09-17T20:41:14.818Z,4.50
2018-09-17T20:44:19.250Z,4.33
2018-09-17T20:47:23.803Z,4.13
2018-09-17T20:53:45.411Z,4.28
2018-09-17T20:56:55.222Z,4.33
2018-09-17T21:00:00.772Z,4.63
2018-09-17T21:03:05.238Z,4.33
2018-09-17T21:06:09.681Z,4.33
2018-09-17T21:09:14.108Z,4.87
2018-09-17T21:12:19.780Z,4.57
2018-09-17T21:15:24.514Z,4.70
2018-09-17T21:18:33.228Z,4.83
2018-09-17T21:21:37.797Z,4.67
2018-09-17T21:24:44.762Z,5.33
2018-09-17T21:27:49.305Z,5.03
2018-09-17T21:30:53.867Z,5.40
2018-09-17T21:33:58.305Z,5.43
2018-09-17T21:37:02.790Z,5.90
2018-09-17T21:40:07.335Z,5.40
2018-09-17T21:43:11.874Z,5.70
2018-09-17T21:46:16.374Z,5.93
2018-09-17T21:49:21.491Z,5.10
2018-09-17T21:52:25.935Z,5.93
2018-09-17T21:55:30.434Z,6.17
2018-09-17T21:58:34.927Z,6.23
2018-09-17T22:01:39.318Z,5.90
2018-09-17T22:04:43.840Z,5.90
2018-09-17T22:07:48.330Z,5.87
2018-09-17T22:10:52.889Z,6.27
2018-09-17T22:13:57.378Z,5.90
2018-09-17T22:17:01.928Z,6.70
2018-09-17T22:20:06.416Z,6.27
2018-09-17T22:23:11.045Z,6.20
2018-09-17T22:26:15.482Z,6.87
2018-09-17T22:29:19.904Z,6.60
2018-09-17T22:32:24.367Z,6.30
2018-09-17T22:35:28.895Z,6.10
2018-09-17T22:38:33.398Z,6.40
2018-09-17T22:41:38.103Z,6.70
2018-09-17T22:44:42.530Z,7.10
2018-09-17T22:47:46.990Z,6.77
2018-09-17T22:50:51.442Z,6.63
2018-09-17T22:53:55.889Z,6.30
2018-09-17T22:57:00.342Z,6.13
2018-09-17T23:00:05.109Z,6.40
2018-09-17T23:03:09.577Z,5.60
2018-09-17T23:06:14.014Z,5.63
2018-09-17T23:09:18.467Z,6.40
2018-09-17T23:12:22.981Z,6.10
2018-09-17T23:15:27.421Z,5.80
2018-09-17T23:18:31.911Z,5.90
2018-09-17T23:21:36.358Z,6.27
2018-09-17T23:24:40.880Z,6.00
2018-09-17T23:27:45.392Z,6.17
2018-09-17T23:30:49.911Z,5.93
2018-09-17T23:33:54.380Z,6.23
2018-09-17T23:36:58.881Z,6.70
2018-09-17T23:40:03.377Z,5.87
2018-09-17T23:43:07.905Z,6.50
2018-09-17T23:46:12.355Z,6.20
2018-09-17T23:49:16.807Z,6.37
2018-09-17T23:52:21.305Z,5.70
2018-09-17T23:55:26.035Z,5.77
2018-09-17T23:58:30.472Z,5.90
